createdAt,value
2023-04-09T00:00:37.113Z,6.90
2023-04-09T00:03:03.703Z,6.84
2023-04-09T00:05:30.519Z,6.77
2023-04-09T00:07:57.127Z,6.70
2023-04-09T00:10:23.469Z,6.66
2023-04-09T00:12:49.818Z,6.66
2023-04-09T00:15:27.839Z,6.65
2023-04-09T00:17:57.366Z,6.60
2023-04-09T00:20:23.832Z,6.58
2023-04-09T00:22:51.605Z,6.59
2023-04-09T00:25:18.250Z,6.56
2023-04-09T00:27:44.612Z,6.49
2023-04-09T00:30:11.505Z,6.36
2023-04-09T00:32:37.909Z,6.33
2023-04-09T00:35:04.521Z,6.29
2023-04-09T00:37:30.881Z,6.27
2023-04-09T00:39:57.195Z,6.22
2023-04-09T00:42:23.801Z,6.19
2023-04-09T00:44:50.119Z,6.12
2023-04-09T00:47:17.116Z,6.10
2023-04-09T00:49:44.449Z,6.13
2023-04-09T00:52:11.038Z,6.09
2023-04-09T00:54:37.421Z,6.08
2023-04-09T00:57:03.766Z,6.01
2023-04-09T00:59:30.184Z,5.98
2023-04-09T01:01:56.759Z,5.91
2023-04-09T01:04:24.141Z,5.89
2023-04-09T01:07:03.122Z,5.88
2023-04-09T01:09:51.902Z,5.86
2023-04-09T01:12:38.678Z,5.85
2023-04-09T01:15:08.507Z,5.76
2023-04-09T01:17:41.448Z,5.76
2023-04-09T01:20:26.988Z,5.78
2023-04-09T01:23:11.114Z,5.72
2023-04-09T01:26:02.916Z,5.57
2023-04-09T01:28:42.496Z,5.60
2023-04-09T01:31:15.983Z,5.52
2023-04-09T01:33:43.225Z,5.54
2023-04-09T01:36:10.819Z,5.50
2023-04-09T01:38:41.404Z,5.45
2023-04-09T01:41:23.885Z,5.45
2023-04-09T01:43:51.506Z,5.46
2023-04-09T01:46:18.760Z,5.39
2023-04-09T01:48:46.395Z,5.37
2023-04-09T01:51:14.187Z,5.36
2023-04-09T01:53:41.632Z,5.38
2023-04-09T01:56:09.247Z,5.35
2023-04-09T01:58:36.292Z,5.31
2023-04-09T02:01:15.526Z,5.32
2023-04-09T02:03:51.314Z,5.33
2023-04-09T02:06:39.895Z,5.29
2023-04-09T02:09:08.975Z,5.28
2023-04-09T02:11:40.265Z,5.25
2023-04-09T02:14:11.045Z,5.21
2023-04-09T02:16:38.923Z,5.16
2023-04-09T02:19:05.537Z,5.19
2023-04-09T02:21:32.143Z,5.14
2023-04-09T02:23:58.507Z,5.04
2023-04-09T02:26:25.534Z,5.01
2023-04-09T02:28:52.079Z,4.92
2023-04-09T02:31:18.829Z,4.93
2023-04-09T02:33:45.323Z,4.82
2023-04-09T02:36:12.859Z,4.79
2023-04-09T02:38:42.728Z,4.74
2023-04-09T02:41:09.933Z,4.74
2023-04-09T02:43:36.689Z,4.72
2023-04-09T02:46:03.376Z,4.64
2023-04-09T02:48:30.843Z,4.59
2023-04-09T02:50:57.282Z,4.54
2023-04-09T02:53:23.710Z,4.56
2023-04-09T02:55:50.068Z,4.44
2023-04-09T02:58:16.391Z,4.41
2023-04-09T03:00:43.143Z,4.46
2023-04-09T03:03:09.787Z,4.43
2023-04-09T03:05:36.680Z,4.34
2023-04-09T03:08:03.863Z,4.39
2023-04-09T03:10:30.400Z,4.41
2023-04-09T03:12:56.732Z,4.34
2023-04-09T03:15:23.050Z,4.33
2023-04-09T03:17:49.487Z,4.37
2023-04-09T03:20:15.898Z,4.30
2023-04-09T03:22:42.258Z,4.33
2023-04-09T03:25:21.196Z,4.31
2023-04-09T03:27:51.052Z,4.20
2023-04-09T03:30:25.509Z,4.24
2023-04-09T03:32:52.249Z,4.22
2023-04-09T03:35:19.884Z,4.17
2023-04-09T03:37:46.583Z,4.10
2023-04-09T03:40:17.346Z,4.07
2023-04-09T03:42:44.063Z,4.09
2023-04-09T03:45:12.852Z,4.05
2023-04-09T03:47:43.637Z,4.04
2023-04-09T03:50:10.761Z,3.98
2023-04-09T03:52:47.304Z,3.97
2023-04-09T03:55:13.722Z,3.88
2023-04-09T03:57:40.237Z,3.84
2023-04-09T04:00:11.282Z,3.80
2023-04-09T04:02:50.229Z,3.73
2023-04-09T04:05:24.495Z,3.78
2023-04-09T04:07:51.645Z,3.77
2023-04-09T04:10:25.278Z,3.73
2023-04-09T04:12:51.711Z,3.65
2023-04-09T04:15:25.473Z,3.59
2023-04-09T04:17:55.244Z,3.63
2023-04-09T04:20:38.967Z,3.61
2023-04-09T04:23:12.014Z,3.61
2023-04-09T04:25:46.566Z,3.67
2023-04-09T04:28:17.492Z,3.61
2023-04-09T04:30:43.908Z,3.61
2023-04-09T04:33:10.813Z,3.61
2023-04-09T04:35:43.864Z,3.58
2023-04-09T04:38:27.000Z,3.56
2023-04-09T04:40:53.871Z,3.51
2023-04-09T04:43:21.536Z,3.47
2023-04-09T04:45:49.450Z,3.51
2023-04-09T04:48:15.929Z,3.45
2023-04-09T04:50:42.278Z,3.50
2023-04-09T04:53:09.460Z,3.45
2023-04-09T04:55:43.775Z,3.39
2023-04-09T04:58:13.716Z,3.42
2023-04-09T05:00:47.675Z,3.34
2023-04-09T05:03:14.751Z,3.31
2023-04-09T05:05:53.094Z,3.31
2023-04-09T05:08:20.611Z,3.29
2023-04-09T05:10:51.117Z,3.28
2023-04-09T05:13:19.509Z,3.20
2023-04-09T05:15:45.863Z,3.24
2023-04-09T05:18:12.370Z,3.22
2023-04-09T05:20:39.353Z,3.19
2023-04-09T05:23:10.227Z,3.21
2023-04-09T05:25:40.783Z,3.19
2023-04-09T05:28:12.745Z,3.24
2023-04-09T05:30:40.884Z,3.25
2023-04-09T05:33:08.489Z,3.28
2023-04-09T05:35:38.621Z,3.31
2023-04-09T05:38:05.191Z,3.38
2023-04-09T05:40:31.655Z,3.46
2023-04-09T05:42:58.009Z,3.48
2023-04-09T05:45:37.031Z,3.53
2023-04-09T05:48:03.690Z,3.55
2023-04-09T05:50:33.085Z,3.64
2023-04-09T05:53:04.973Z,3.73
2023-04-09T05:55:37.835Z,3.79
2023-04-09T05:58:04.169Z,3.88
2023-04-09T06:00:30.714Z,3.97
2023-04-09T06:02:57.147Z,4.01
2023-04-09T06:05:23.549Z,4.12
2023-04-09T06:07:51.055Z,4.16
2023-04-09T06:10:17.481Z,4.26
2023-04-09T06:12:43.887Z,4.38
2023-04-09T06:15:10.808Z,4.43
2023-04-09T06:17:37.245Z,4.49
2023-04-09T06:20:03.938Z,4.58
2023-04-09T06:22:30.460Z,4.71
2023-04-09T06:24:56.806Z,4.69
2023-04-09T06:27:23.203Z,4.78
2023-04-09T06:29:49.542Z,4.87
2023-04-09T06:32:16.756Z,4.96
2023-04-09T06:34:43.118Z,5.06
2023-04-09T06:37:09.419Z,5.17
2023-04-09T06:39:37.414Z,5.27
2023-04-09T06:42:05.074Z,5.37
2023-04-09T06:44:38.425Z,5.46
2023-04-09T06:47:04.763Z,5.52
2023-04-09T06:49:31.076Z,5.60
2023-04-09T06:51:57.792Z,5.78
2023-04-09T06:54:24.093Z,5.91
2023-04-09T06:56:50.578Z,6.03
2023-04-09T06:59:16.941Z,6.14
2023-04-09T07:01:43.544Z,6.27
2023-04-09T07:04:10.527Z,6.51
2023-04-09T07:06:36.946Z,6.62
2023-04-09T07:09:03.444Z,6.75
2023-04-09T07:11:29.804Z,6.86
2023-04-09T07:13:56.689Z,6.86
2023-04-09T07:16:23.555Z,6.99
2023-04-09T07:18:50.542Z,7.06
2023-04-09T07:21:17.032Z,7.22
2023-04-09T07:23:43.350Z,7.28
2023-04-09T07:26:10.298Z,7.37
2023-04-09T07:28:36.883Z,7.49
2023-04-09T07:31:03.766Z,7.55
2023-04-09T07:33:30.165Z,7.69
2023-04-09T07:35:56.677Z,7.83
2023-04-09T07:38:23.085Z,7.78
2023-04-09T07:40:49.443Z,7.79
2023-04-09T07:43:16.693Z,7.86
2023-04-09T07:45:44.444Z,8.03
2023-04-09T07:48:10.941Z,8.09
2023-04-09T07:50:37.985Z,8.21
2023-04-09T07:53:04.478Z,8.37
2023-04-09T07:55:30.953Z,8.51
2023-04-09T07:57:57.280Z,8.71
2023-04-09T08:00:23.662Z,8.59
2023-04-09T08:02:50.743Z,8.76
2023-04-09T08:05:17.383Z,8.91
2023-04-09T08:07:43.822Z,9.06
2023-04-09T08:10:14.881Z,9.21
2023-04-09T08:12:41.669Z,9.28
2023-04-09T08:15:08.451Z,9.41
2023-04-09T08:17:36.901Z,9.50
2023-04-09T08:20:07.206Z,9.75
2023-04-09T08:22:34.477Z,9.84
2023-04-09T08:25:02.761Z,9.99
2023-04-09T08:27:29.317Z,10.26
2023-04-09T08:29:55.677Z,10.43
2023-04-09T08:32:22.097Z,10.58
2023-04-09T08:34:48.472Z,10.67
2023-04-09T08:37:14.805Z,10.70
2023-04-09T08:39:41.119Z,10.85
2023-04-09T08:42:08.128Z,11.06
2023-04-09T08:44:34.560Z,11.14
2023-04-09T08:47:01.582Z,11.25
2023-04-09T08:49:28.149Z,11.24
2023-04-09T08:51:54.653Z,11.29
2023-04-09T08:54:21.025Z,11.48
2023-04-09T08:56:47.708Z,11.58
2023-04-09T08:59:18.497Z,11.75
2023-04-09T09:01:47.776Z,11.91
2023-04-09T09:04:14.297Z,11.77
2023-04-09T09:06:41.623Z,11.98
2023-04-09T09:09:13.042Z,12.23
2023-04-09T09:11:42.943Z,12.32
2023-04-09T09:14:14.389Z,12.48
2023-04-09T09:16:43.696Z,12.58
2023-04-09T09:19:33.276Z,12.42
2023-04-09T09:22:01.816Z,12.67
2023-04-09T09:24:28.664Z,12.68
2023-04-09T09:26:55.650Z,12.69
2023-04-09T09:29:22.024Z,12.46
2023-04-09T09:31:56.128Z,12.28
2023-04-09T09:34:25.135Z,12.28
2023-04-09T09:36:51.491Z,12.55
2023-04-09T09:39:18.080Z,12.71
2023-04-09T09:41:46.238Z,13.06
2023-04-09T09:44:31.160Z,13.34
2023-04-09T09:46:58.906Z,13.68
2023-04-09T09:49:25.302Z,13.80
2023-04-09T09:51:53.425Z,13.78
2023-04-09T09:54:22.552Z,13.79
2023-04-09T09:56:52.483Z,13.65
2023-04-09T09:59:26.902Z,13.74
2023-04-09T10:02:05.828Z,13.64
2023-04-09T10:04:38.387Z,13.94
2023-04-09T10:07:06.841Z,14.23
2023-04-09T10:09:35.773Z,14.50
2023-04-09T10:12:04.832Z,14.42
2023-04-09T10:14:31.449Z,14.29
2023-04-09T10:16:58.312Z,13.99
2023-04-09T10:19:24.885Z,13.81
2023-04-09T10:21:57.711Z,13.82
2023-04-09T10:24:24.878Z,14.22
2023-04-09T10:26:54.808Z,14.33
2023-04-09T10:29:29.066Z,14.58
2023-04-09T10:32:05.573Z,14.81
2023-04-09T10:34:44.965Z,14.84
2023-04-09T10:37:29.914Z,14.74
2023-04-09T10:39:57.606Z,14.52
2023-04-09T10:42:29.768Z,14.40
2023-04-09T10:45:09.615Z,14.25
2023-04-09T10:47:38.348Z,14.62
2023-04-09T10:50:32.111Z,14.96
2023-04-09T10:53:00.264Z,15.11
2023-04-09T10:55:38.081Z,14.89
2023-04-09T10:58:05.966Z,14.56
2023-04-09T11:00:37.691Z,14.42
2023-04-09T11:03:10.652Z,14.91
2023-04-09T11:05:38.313Z,15.02
2023-04-09T11:08:13.181Z,14.92
2023-04-09T11:10:44.832Z,14.58
2023-04-09T11:13:13.269Z,14.35
2023-04-09T11:15:40.317Z,14.41
2023-04-09T11:18:07.026Z,14.44
2023-04-09T11:20:34.441Z,14.86
2023-04-09T11:23:01.032Z,14.65
2023-04-09T11:25:29.777Z,14.41
2023-04-09T11:27:56.248Z,14.19
2023-04-09T11:30:22.858Z,14.11
2023-04-09T11:32:50.451Z,14.33
2023-04-09T11:35:18.960Z,14.07
2023-04-09T11:37:46.473Z,13.96
2023-04-09T11:40:24.293Z,13.74
2023-04-09T11:42:53.273Z,14.00
2023-04-09T11:45:24.697Z,14.21
2023-04-09T11:47:51.605Z,14.44
2023-04-09T11:50:19.801Z,15.07
2023-04-09T11:52:46.752Z,15.40
2023-04-09T11:55:23.718Z,15.84
2023-04-09T11:57:51.984Z,16.06
2023-04-09T12:00:19.609Z,16.30
2023-04-09T12:02:48.195Z,16.26
2023-04-09T12:05:23.098Z,16.09
2023-04-09T12:07:56.424Z,15.77
2023-04-09T12:10:28.264Z,15.59
2023-04-09T12:12:55.122Z,15.60
2023-04-09T12:15:25.288Z,15.48
2023-04-09T12:17:54.678Z,15.30
2023-04-09T12:20:29.355Z,15.22
2023-04-09T12:22:56.388Z,15.63
2023-04-09T12:25:22.895Z,15.84
2023-04-09T12:27:49.632Z,15.83
2023-04-09T12:30:16.083Z,15.88
2023-04-09T12:32:44.626Z,16.10
2023-04-09T12:35:11.320Z,16.24
2023-04-09T12:37:37.696Z,16.27
2023-04-09T12:40:04.448Z,16.37
2023-04-09T12:42:30.927Z,16.62
2023-04-09T12:44:57.237Z,16.49
2023-04-09T12:47:23.619Z,16.81
2023-04-09T12:49:50.139Z,16.72
2023-04-09T12:52:18.451Z,16.79
2023-04-09T12:54:45.034Z,16.76
2023-04-09T12:57:11.478Z,16.94
2023-04-09T12:59:37.814Z,16.91
2023-04-09T13:02:04.279Z,16.87
2023-04-09T13:04:31.153Z,16.84
2023-04-09T13:06:57.778Z,17.02
2023-04-09T13:09:24.155Z,16.75
2023-04-09T13:11:50.520Z,16.40
2023-04-09T13:14:16.874Z,16.82
2023-04-09T13:16:43.207Z,16.99
2023-04-09T13:19:09.955Z,16.83
2023-04-09T13:21:36.427Z,16.64
2023-04-09T13:24:03.974Z,16.58
2023-04-09T13:26:31.343Z,16.92
2023-04-09T13:28:58.683Z,17.12
2023-04-09T13:31:25.353Z,17.13
2023-04-09T13:33:51.736Z,17.32
2023-04-09T13:36:18.068Z,17.54
2023-04-09T13:38:44.551Z,17.32
2023-04-09T13:41:11.021Z,17.41
2023-04-09T13:43:37.398Z,17.04
2023-04-09T13:46:04.774Z,17.10
2023-04-09T13:48:31.172Z,17.12
2023-04-09T13:50:57.762Z,17.25
2023-04-09T13:53:25.092Z,17.04
2023-04-09T13:55:51.471Z,16.96
2023-04-09T13:58:18.064Z,17.05
2023-04-09T14:00:44.429Z,16.55
2023-04-09T14:03:11.233Z,15.97
2023-04-09T14:05:37.712Z,15.74
2023-04-09T14:08:04.110Z,15.54
2023-04-09T14:10:30.723Z,15.57
2023-04-09T14:12:57.097Z,15.66
2023-04-09T14:15:23.529Z,15.92
2023-04-09T14:17:49.846Z,15.95
2023-04-09T14:20:16.284Z,16.10
2023-04-09T14:22:42.924Z,16.28
2023-04-09T14:25:09.518Z,16.32
2023-04-09T14:27:36.336Z,16.17
2023-04-09T14:30:03.532Z,16.32
2023-04-09T14:32:29.953Z,16.21
2023-04-09T14:34:56.323Z,16.15
2023-04-09T14:37:22.981Z,16.31
2023-04-09T14:39:49.381Z,16.35
2023-04-09T14:42:15.764Z,16.35
2023-04-09T14:44:42.141Z,16.52
2023-04-09T14:47:08.546Z,16.46
2023-04-09T14:49:35.125Z,16.51
2023-04-09T14:52:01.464Z,16.50
2023-04-09T14:54:30.208Z,16.34
2023-04-09T14:56:58.231Z,16.21
2023-04-09T14:59:25.588Z,16.43
2023-04-09T15:01:52.750Z,16.24
2023-04-09T15:04:19.239Z,16.51
2023-04-09T15:06:45.611Z,16.74
2023-04-09T15:09:12.028Z,16.94
2023-04-09T15:11:38.434Z,16.84
2023-04-09T15:14:04.778Z,16.98
2023-04-09T15:16:33.217Z,17.19
2023-04-09T15:18:59.941Z,17.14
2023-04-09T15:21:27.565Z,17.13
2023-04-09T15:23:53.989Z,17.08
2023-04-09T15:26:20.719Z,17.12
2023-04-09T15:28:47.198Z,17.26
2023-04-09T15:31:13.692Z,17.28
2023-04-09T15:33:42.322Z,16.92
2023-04-09T15:36:09.340Z,16.81
2023-04-09T15:38:35.974Z,16.74
2023-04-09T15:41:02.341Z,16.69
2023-04-09T15:43:28.662Z,16.66
2023-04-09T15:45:55.044Z,16.52
2023-04-09T15:48:21.550Z,16.73
2023-04-09T15:50:47.854Z,16.74
2023-04-09T15:53:15.586Z,16.76
2023-04-09T15:55:42.279Z,16.64
2023-04-09T15:58:08.724Z,16.74
2023-04-09T16:00:35.742Z,16.59
2023-04-09T16:03:02.104Z,16.53
2023-04-09T16:05:28.423Z,16.17
2023-04-09T16:07:55.574Z,16.28
2023-04-09T16:10:23.319Z,16.19
2023-04-09T16:12:49.762Z,16.21
2023-04-09T16:15:16.321Z,15.82
2023-04-09T16:17:42.667Z,15.98
2023-04-09T16:20:09.102Z,15.66
2023-04-09T16:22:35.521Z,15.69
2023-04-09T16:25:01.938Z,15.34
2023-04-09T16:27:28.251Z,15.14
2023-04-09T16:29:54.599Z,15.13
2023-04-09T16:32:21.310Z,15.08
2023-04-09T16:34:47.656Z,15.06
2023-04-09T16:37:14.068Z,15.10
2023-04-09T16:39:40.517Z,15.16
2023-04-09T16:42:07.001Z,15.24
2023-04-09T16:44:33.342Z,15.33
2023-04-09T16:47:00.940Z,15.29
2023-04-09T16:49:27.280Z,15.17
2023-04-09T16:51:54.446Z,15.09
2023-04-09T16:54:20.865Z,15.10
2023-04-09T16:56:48.614Z,15.08
2023-04-09T16:59:17.490Z,15.00
2023-04-09T17:01:43.992Z,14.92
2023-04-09T17:04:10.513Z,14.72
2023-04-09T17:06:36.932Z,14.46
2023-04-09T17:09:05.212Z,14.58
2023-04-09T17:11:32.653Z,14.34
2023-04-09T17:13:58.979Z,14.39
2023-04-09T17:16:25.640Z,14.30
2023-04-09T17:18:52.331Z,14.23
2023-04-09T17:21:18.885Z,14.15
2023-04-09T17:23:45.457Z,14.04
2023-04-09T17:26:11.831Z,13.99
2023-04-09T17:28:38.167Z,13.89
2023-04-09T17:31:13.171Z,13.84
2023-04-09T17:33:39.711Z,13.77
2023-04-09T17:36:06.458Z,13.76
2023-04-09T17:38:32.814Z,13.61
2023-04-09T17:40:59.139Z,13.59
2023-04-09T17:43:25.961Z,13.57
2023-04-09T17:45:52.366Z,13.43
2023-04-09T17:48:18.856Z,13.33
2023-04-09T17:50:45.384Z,13.22
2023-04-09T17:53:11.727Z,13.08
2023-04-09T17:55:38.096Z,13.07
2023-04-09T17:58:04.461Z,12.95
2023-04-09T18:00:31.534Z,12.93
2023-04-09T18:02:58.736Z,12.85
2023-04-09T18:05:25.908Z,12.77
2023-04-09T18:07:54.921Z,12.74
2023-04-09T18:10:21.572Z,12.49
2023-04-09T18:12:47.982Z,12.44
2023-04-09T18:15:15.051Z,12.45
2023-04-09T18:17:41.444Z,12.37
2023-04-09T18:20:08.281Z,12.26
2023-04-09T18:22:35.049Z,12.30
2023-04-09T18:25:01.838Z,12.18
2023-04-09T18:27:28.140Z,12.10
2023-04-09T18:29:54.844Z,12.15
2023-04-09T18:32:21.622Z,12.12
2023-04-09T18:34:48.296Z,12.09
2023-04-09T18:37:15.345Z,11.99
2023-04-09T18:39:41.771Z,11.90
2023-04-09T18:42:08.149Z,11.83
2023-04-09T18:44:36.269Z,11.73
2023-04-09T18:47:05.364Z,11.66
2023-04-09T18:49:35.935Z,11.55
2023-04-09T18:52:05.255Z,11.35
2023-04-09T18:54:34.801Z,11.39
2023-04-09T18:57:03.923Z,11.26
2023-04-09T18:59:31.522Z,11.10
2023-04-09T19:01:58.474Z,11.04
2023-04-09T19:04:28.061Z,10.97
2023-04-09T19:06:54.660Z,10.89
2023-04-09T19:09:21.477Z,10.82
2023-04-09T19:11:47.782Z,10.78
2023-04-09T19:14:14.121Z,10.64
2023-04-09T19:16:40.843Z,10.64
2023-04-09T19:19:07.291Z,10.68
2023-04-09T19:21:35.132Z,10.60
2023-04-09T19:24:04.310Z,10.64
2023-04-09T19:26:31.819Z,10.52
2023-04-09T19:28:58.126Z,10.41
2023-04-09T19:31:24.614Z,10.39
2023-04-09T19:33:51.592Z,10.32
2023-04-09T19:36:18.009Z,10.26
2023-04-09T19:38:44.334Z,10.21
2023-04-09T19:41:10.842Z,10.16
2023-04-09T19:43:39.210Z,10.09
2023-04-09T19:46:08.278Z,9.96
2023-04-09T19:48:35.718Z,9.87
2023-04-09T19:51:02.157Z,9.76
2023-04-09T19:53:28.536Z,9.72
2023-04-09T19:55:54.845Z,9.63
2023-04-09T19:58:21.183Z,9.55
2023-04-09T20:00:47.571Z,9.51
2023-04-09T20:03:14.067Z,9.43
2023-04-09T20:05:40.656Z,9.39
2023-04-09T20:08:11.782Z,9.34
2023-04-09T20:10:42.589Z,9.32
2023-04-09T20:13:08.945Z,9.26
2023-04-09T20:15:35.309Z,9.19
2023-04-09T20:18:01.783Z,9.20
2023-04-09T20:20:28.190Z,9.12
2023-04-09T20:22:56.485Z,9.01
2023-04-09T20:25:24.298Z,8.92
2023-04-09T20:27:54.398Z,8.88
2023-04-09T20:30:21.253Z,8.86
2023-04-09T20:32:48.850Z,8.80
2023-04-09T20:35:15.388Z,8.75
2023-04-09T20:37:41.753Z,8.70
2023-04-09T20:40:08.470Z,8.58
2023-04-09T20:42:34.806Z,8.51
2023-04-09T20:45:01.992Z,8.45
2023-04-09T20:47:28.557Z,8.40
2023-04-09T20:49:59.459Z,8.31
2023-04-09T20:52:28.258Z,8.30
2023-04-09T20:54:55.143Z,8.19
2023-04-09T20:57:21.617Z,8.20
2023-04-09T20:59:49.863Z,8.12
2023-04-09T21:02:17.413Z,8.00
2023-04-09T21:04:43.884Z,7.91
2023-04-09T21:07:10.306Z,7.91
2023-04-09T21:09:36.799Z,7.83
2023-04-09T21:12:03.165Z,7.79
2023-04-09T21:14:29.654Z,7.82
2023-04-09T21:16:56.004Z,7.79
2023-04-09T21:19:22.538Z,7.82
2023-04-09T21:21:48.911Z,7.77
2023-04-09T21:24:16.095Z,7.80
2023-04-09T21:26:51.022Z,7.74
2023-04-09T21:29:20.571Z,7.78
2023-04-09T21:31:48.027Z,7.77
2023-04-09T21:34:14.441Z,7.78
2023-04-09T21:36:41.214Z,7.75
2023-04-09T21:39:07.684Z,7.74
2023-04-09T21:41:33.999Z,7.68
2023-04-09T21:44:07.734Z,7.52
2023-04-09T21:46:37.770Z,7.49
2023-04-09T21:49:04.394Z,7.40
2023-04-09T21:51:31.423Z,7.37
2023-04-09T21:54:11.000Z,7.39
2023-04-09T21:56:38.050Z,7.42
2023-04-09T21:59:05.381Z,7.43
2023-04-09T22:01:33.325Z,7.45
2023-04-09T22:04:01.640Z,7.43
2023-04-09T22:06:28.812Z,7.48
2023-04-09T22:08:57.305Z,7.39
2023-04-09T22:11:27.433Z,7.36
2023-04-09T22:13:57.727Z,7.36
2023-04-09T22:16:25.168Z,7.30
2023-04-09T22:18:52.410Z,7.27
2023-04-09T22:21:19.045Z,7.31
2023-04-09T22:23:45.394Z,7.30
2023-04-09T22:26:11.797Z,7.34
2023-04-09T22:28:38.331Z,7.28
2023-04-09T22:31:05.103Z,7.24
2023-04-09T22:33:31.647Z,7.21
2023-04-09T22:35:59.194Z,7.17
2023-04-09T22:38:25.964Z,7.15
2023-04-09T22:40:52.513Z,7.13
2023-04-09T22:43:19.423Z,7.07
2023-04-09T22:45:55.885Z,7.04
2023-04-09T22:48:22.812Z,7.01
2023-04-09T22:50:50.215Z,6.95
2023-04-09T22:53:19.819Z,6.94
2023-04-09T22:55:47.391Z,6.84
2023-04-09T22:58:13.735Z,6.78
2023-04-09T23:00:40.296Z,6.70
2023-04-09T23:03:06.816Z,6.64
2023-04-09T23:05:33.346Z,6.55
2023-04-09T23:07:59.690Z,6.49
2023-04-09T23:10:26.306Z,6.37
2023-04-09T23:12:52.653Z,6.32
2023-04-09T23:15:19.549Z,6.32
2023-04-09T23:17:46.003Z,6.31
2023-04-09T23:20:14.640Z,6.26
2023-04-09T23:22:41.759Z,6.20
2023-04-09T23:25:08.595Z,6.17
2023-04-09T23:27:35.124Z,6.12
2023-04-09T23:30:01.453Z,6.03
2023-04-09T23:32:27.826Z,6.04
2023-04-09T23:34:54.207Z,6.08
2023-04-09T23:37:20.529Z,6.11
2023-04-09T23:39:47.663Z,6.06
2023-04-09T23:42:13.992Z,5.99
2023-04-09T23:44:40.326Z,5.92
2023-04-09T23:47:07.559Z,5.97
2023-04-09T23:49:33.930Z,5.91
2023-04-09T23:52:00.282Z,5.94
2023-04-09T23:54:26.946Z,5.98
2023-04-09T23:56:53.325Z,5.92
2023-04-09T23:59:19.660Z,5.88
